Portada
METAR-TAF:

METAR-TAF

Aeroports :

Gwadar, Pakistan

latitud: 25-13-59N, longitud: 062-19-46E, altitud: 29 m

METAR: manca

Hora: 01:06 (20:06 UTC)

Pronòstic

L'informe es va fer fa 3 hores i 36 minuts, a les 16:30 UTC
Pronòstic vàlid del 26 a les 18 UTC al 27 a les 18 UTC
Vent 5 kt del Nord
Visibilitat: 5000 m
fum
Temporalment
l' 27 a les 00 UTC al 27 a les 04 UTC
Vent kt del Nord
Visibilitat: 4000 m
calitja
Evolucionant progressivament
l' 27 a les 06 UTC al 27 a les 08 UTC
Vent 10 kt del Oest/Sud-Oest
Visibilitat: 7000 m

TAF: OPGD 261630Z 2618/2718 36005KT 5000 FU NSC TEMPO 2700/2704 00000KT 4000 HZ NSC BECMG 2706/2708 25010KT 7000 NSC

Observacions i pronòstics meteorològics de més de 4000 aeroports (METAR i TAF).

Les estacions disponibles són els punts grocs i vermells al mapa.

Posi el ratolí al punt desitjat per veure el nom de l'estació.

Feu clic per veure les observacions i els pronòstics meteorològics.

Per canviar el mapa: feu clic els botons verds amb una creu de color negre per apropar; al botó verd amb un guió per allunyar la imatge; o en les fletxes verdes per a mapes adjacents.


METAR-TAF: